Time;durP1;ratioP1;P1;durP2;ratioP2;P2;SDS_P1;SDS_P2;PMS_P1;PMS_P2;Temp;Humidity;BMP_temperature;BMP_pressure;BME280_temperature;BME280_humidity;BME280_pressure;Samples;Min_cycle;Max_cycle;Signal;HPM_P1;HPM_P2
2022/07/11 00:01:05;;;;;;;3.97;2.35;;;;;;;;;;5056140;28;20057;-70
2022/07/11 00:03:31;;;;;;;4.00;2.50;;;;;;;;;;5056033;28;20115;-70
2022/07/11 00:05:57;;;;;;;3.88;2.30;;;;;;;;;;5056042;28;20031;-68
2022/07/11 00:08:24;;;;;;;7.75;2.72;;;;;;;;;;5056015;28;20025;-69
2022/07/11 00:10:50;;;;;;;6.40;2.55;;;;;;;;;;5055964;28;20021;-70
2022/07/11 00:13:16;;;;;;;5.55;2.50;;;;;;;;;;5056207;28;20029;-70
2022/07/11 00:15:42;;;;;;;6.72;2.53;;;;;;;;;;5056130;28;20028;-69
2022/07/11 00:18:08;;;;;;;3.45;2.35;;;;;;;;;;5055802;28;20532;-70
2022/07/11 00:20:34;;;;;;;5.45;2.42;;;;;;;;;;5055787;28;20025;-70
2022/07/11 00:23:00;;;;;;;7.50;2.80;;;;;;;;;;5056027;28;20028;-71
2022/07/11 00:25:26;;;;;;;7.25;2.30;;;;;;;;;;5055646;28;20021;-69
2022/07/11 00:27:52;;;;;;;4.50;2.50;;;;;;;;;;5055639;28;20032;-69
2022/07/11 00:30:19;;;;;;;8.18;2.88;;;;;;;;;;5055853;28;20548;-68
2022/07/11 00:32:45;;;;;;;6.78;2.75;;;;;;;;;;5055538;28;20379;-71
2022/07/11 00:35:11;;;;;;;4.47;2.50;;;;;;;;;;5055754;28;20024;-72
2022/07/11 00:37:37;;;;;;;7.50;2.80;;;;;;;;;;5055472;28;20033;-69
2022/07/11 00:40:03;;;;;;;4.47;2.63;;;;;;;;;;5055691;28;20036;-71
2022/07/11 00:42:29;;;;;;;7.32;2.63;;;;;;;;;;5055372;28;20025;-69
2022/07/11 00:44:55;;;;;;;4.78;2.67;;;;;;;;;;5055366;28;20083;-70
2022/07/11 00:47:21;;;;;;;4.40;2.50;;;;;;;;;;5055318;28;20425;-70
2022/07/11 00:49:47;;;;;;;5.50;2.58;;;;;;;;;;5055182;28;20021;-69
2022/07/11 00:52:13;;;;;;;7.70;2.50;;;;;;;;;;5055701;28;20102;-69
2022/07/11 00:54:40;;;;;;;5.05;2.60;;;;;;;;;;5054871;28;20057;-69
2022/07/11 00:57:06;;;;;;;5.78;2.58;;;;;;;;;;5055115;28;20437;-70
2022/07/11 00:59:32;;;;;;;9.13;2.92;;;;;;;;;;5055280;28;20039;-71
2022/07/11 01:01:58;;;;;;;6.07;3.03;;;;;;;;;;5055257;28;20032;-67
2022/07/11 01:04:24;;;;;;;4.47;2.60;;;;;;;;;;5054907;28;20029;-70
2022/07/11 01:06:50;;;;;;;8.65;2.53;;;;;;;;;;5055187;28;20032;-71
2022/07/11 01:09:16;;;;;;;6.82;3.05;;;;;;;;;;5054854;28;20433;-69
2022/07/11 01:11:42;;;;;;;6.78;2.70;;;;;;;;;;5054805;28;20013;-68
2022/07/11 01:14:08;;;;;;;6.20;2.45;;;;;;;;;;5054735;28;20036;-69
2022/07/11 01:16:34;;;;;;;12.30;2.90;;;;;;;;;;5055239;28;20025;-70
2022/07/11 01:19:00;;;;;;;4.22;2.80;;;;;;;;;;5054640;28;20032;-69
2022/07/11 01:21:26;;;;;;;8.48;3.35;;;;;;;;;;5054858;28;20025;-69
2022/07/11 01:23:54;;;;;;;6.18;2.40;;;;;;;;;;5054467;28;20463;-69
2022/07/11 01:26:21;;;;;;;7.75;2.97;;;;;;;;;;5054780;28;20042;-68
2022/07/11 01:28:47;;;;;;;6.28;2.80;;;;;;;;;;5054438;28;20044;-69
2022/07/11 01:31:13;;;;;;;5.65;2.67;;;;;;;;;;5054436;28;20028;-71
2022/07/11 01:33:39;;;;;;;4.95;2.85;;;;;;;;;;5054340;28;20032;-67
2022/07/11 01:36:06;;;;;;;8.38;3.28;;;;;;;;;;5054552;28;20029;-71
2022/07/11 01:38:32;;;;;;;6.53;2.50;;;;;;;;;;5054540;28;20036;-70
2022/07/11 01:40:59;;;;;;;4.35;2.78;;;;;;;;;;5054238;28;20029;-68
2022/07/11 01:43:25;;;;;;;4.90;2.70;;;;;;;;;;5036031;28;20115;-71
2022/07/11 01:45:52;;;;;;;4.53;2.97;;;;;;;;;;5054350;28;20116;-69
2022/07/11 01:48:18;;;;;;;8.07;3.20;;;;;;;;;;5036315;28;20021;-69
2022/07/11 01:50:44;;;;;;;5.72;2.70;;;;;;;;;;5036114;28;20398;-69
2022/07/11 01:53:10;;;;;;;7.10;3.17;;;;;;;;;;5054068;28;20048;-67
2022/07/11 01:55:36;;;;;;;4.70;3.22;;;;;;;;;;5054838;28;20406;-71
2022/07/11 01:58:02;;;;;;;8.75;3.10;;;;;;;;;;5054190;28;20028;-70
2022/07/11 02:00:28;;;;;;;4.65;2.92;;;;;;;;;;5054191;28;20040;-70
2022/07/11 02:02:54;;;;;;;4.28;2.45;;;;;;;;;;5035895;28;20025;-69
2022/07/11 02:05:20;;;;;;;4.22;2.67;;;;;;;;;;5052922;28;20036;-70
2022/07/11 02:10:31;;;;;;;5.05;3.20;;;;;;;;;;5054052;28;20067;-70
2022/07/11 02:12:58;;;;;;;4.20;2.45;;;;;;;;;;5053659;28;20025;-69
2022/07/11 02:15:24;;;;;;;6.10;2.85;;;;;;;;;;5053640;28;20083;-69
2022/07/11 02:17:51;;;;;;;3.83;2.30;;;;;;;;;;5054110;28;20021;-70
2022/07/11 02:20:17;;;;;;;4.90;2.55;;;;;;;;;;5053569;28;20108;-71
2022/07/11 02:22:43;;;;;;;6.47;2.72;;;;;;;;;;5053485;28;20031;-69
2022/07/11 02:25:10;;;;;;;4.18;2.65;;;;;;;;;;5053656;28;20029;-71
2022/07/11 02:27:36;;;;;;;5.15;2.63;;;;;;;;;;5053455;28;20367;-70
2022/07/11 02:30:02;;;;;;;4.15;2.53;;;;;;;;;;5053653;28;20025;-69
2022/07/11 02:32:28;;;;;;;4.55;2.80;;;;;;;;;;5053649;28;20021;-68
2022/07/11 02:34:54;;;;;;;4.30;2.80;;;;;;;;;;5053298;28;20029;-69
2022/07/11 02:37:20;;;;;;;5.25;3.00;;;;;;;;;;5053249;28;20029;-69
2022/07/11 02:39:47;;;;;;;5.72;2.80;;;;;;;;;;5053559;28;20032;-70
2022/07/11 02:42:13;;;;;;;3.00;2.45;;;;;;;;;;5053507;28;20028;-70
2022/07/11 02:44:39;;;;;;;5.53;2.90;;;;;;;;;;5053520;28;20029;-69
2022/07/11 02:47:05;;;;;;;4.72;2.70;;;;;;;;;;5053148;28;20479;-70
2022/07/11 02:49:32;;;;;;;5.40;2.90;;;;;;;;;;5053131;28;20025;-69
2022/07/11 02:51:58;;;;;;;5.88;2.80;;;;;;;;;;5053633;28;20028;-67
2022/07/11 02:54:24;;;;;;;3.40;2.78;;;;;;;;;;5053363;28;20479;-71
2022/07/11 02:56:50;;;;;;;3.05;2.30;;;;;;;;;;5053065;28;20025;-69
2022/07/11 02:59:16;;;;;;;4.93;2.88;;;;;;;;;;5052999;28;20035;-68
2022/07/11 03:01:42;;;;;;;5.20;2.67;;;;;;;;;;5053007;28;20053;-69
2022/07/11 03:04:12;;;;;;;8.70;2.67;;;;;;;;;;5052906;28;20045;-70
2022/07/11 03:06:38;;;;;;;5.70;2.92;;;;;;;;;;5053017;28;20025;-69
2022/07/11 03:09:05;;;;;;;4.65;2.80;;;;;;;;;;5053499;28;20067;-72
2022/07/11 03:11:32;;;;;;;6.45;2.92;;;;;;;;;;5052931;28;20092;-72
2022/07/11 03:13:58;;;;;;;4.43;2.55;;;;;;;;;;5052857;28;20036;-67
2022/07/11 03:16:24;;;;;;;4.30;2.63;;;;;;;;;;5053980;28;20048;-70
2022/07/11 03:18:50;;;;;;;4.57;2.65;;;;;;;;;;5056902;28;20078;-71
2022/07/11 03:21:16;;;;;;;3.67;2.47;;;;;;;;;;5057128;28;20025;-70
2022/07/11 03:23:42;;;;;;;5.25;2.60;;;;;;;;;;5056784;28;20036;-68
2022/07/11 03:26:08;;;;;;;5.20;2.45;;;;;;;;;;5056817;28;20028;-71
2022/07/11 03:28:34;;;;;;;5.68;2.50;;;;;;;;;;5056718;28;20387;-70
2022/07/11 03:31:01;;;;;;;4.35;2.70;;;;;;;;;;5056703;28;20028;-69
2022/07/11 03:33:27;;;;;;;6.25;2.60;;;;;;;;;;5056693;28;20021;-69
2022/07/11 03:35:53;;;;;;;4.47;2.53;;;;;;;;;;5056636;28;20021;-70
2022/07/11 03:38:20;;;;;;;4.45;2.53;;;;;;;;;;5056549;28;20079;-69
2022/07/11 03:40:47;;;;;;;3.70;2.22;;;;;;;;;;5056778;28;20040;-69
2022/07/11 03:43:13;;;;;;;8.40;2.75;;;;;;;;;;5056492;28;20040;-70
2022/07/11 03:45:40;;;;;;;5.18;2.75;;;;;;;;;;5038372;28;20025;-69
2022/07/11 03:48:07;;;;;;;3.47;2.20;;;;;;;;;;5038475;28;20394;-69
2022/07/11 03:50:33;;;;;;;5.15;2.70;;;;;;;;;;5056913;28;20459;-70
2022/07/11 03:53:00;;;;;;;3.78;2.70;;;;;;;;;;5056380;28;20410;-68
2022/07/11 03:55:26;;;;;;;3.95;2.63;;;;;;;;;;5056861;28;20021;-69
2022/07/11 03:57:52;;;;;;;4.28;2.55;;;;;;;;;;5056182;28;20029;-70
2022/07/11 04:00:19;;;;;;;5.30;2.45;;;;;;;;;;5056439;28;20426;-68
2022/07/11 04:02:46;;;;;;;5.20;2.70;;;;;;;;;;5056160;28;20029;-69
2022/07/11 04:05:12;;;;;;;5.05;2.50;;;;;;;;;;5056023;28;20051;-68
2022/07/11 04:07:39;;;;;;;3.42;2.35;;;;;;;;;;5056300;28;20025;-69
2022/07/11 04:10:05;;;;;;;5.72;2.75;;;;;;;;;;5056271;28;20029;-70
2022/07/11 04:12:31;;;;;;;4.93;2.70;;;;;;;;;;5056454;28;20100;-71
2022/07/11 04:14:57;;;;;;;2.95;2.20;;;;;;;;;;5055878;28;20140;-67
2022/07/11 04:17:23;;;;;;;3.63;2.38;;;;;;;;;;5055844;28;20029;-70
2022/07/11 04:19:49;;;;;;;4.65;2.50;;;;;;;;;;5037827;28;20102;-69
2022/07/11 04:22:15;;;;;;;3.42;2.35;;;;;;;;;;5055764;28;20068;-72
2022/07/11 04:24:41;;;;;;;5.97;2.63;;;;;;;;;;5055623;28;20021;-70
2022/07/11 04:27:07;;;;;;;7.05;2.63;;;;;;;;;;5055661;28;20100;-69
2022/07/11 04:29:33;;;;;;;5.18;2.38;;;;;;;;;;5054729;28;20053;-71
2022/07/11 04:31:59;;;;;;;5.18;2.42;;;;;;;;;;5055832;28;20059;-69
2022/07/11 04:34:25;;;;;;;4.45;2.75;;;;;;;;;;5055764;28;20028;-69
2022/07/11 04:36:51;;;;;;;5.15;2.80;;;;;;;;;;5055434;28;20109;-69
2022/07/11 04:39:17;;;;;;;3.28;2.53;;;;;;;;;;5055727;28;20025;-69
2022/07/11 04:41:43;;;;;;;4.97;2.47;;;;;;;;;;5055660;28;20029;-68
2022/07/11 04:44:09;;;;;;;10.45;2.92;;;;;;;;;;5055247;28;20025;-69
2022/07/11 04:46:35;;;;;;;4.30;2.40;;;;;;;;;;5055223;28;20395;-69
2022/07/11 04:49:01;;;;;;;3.53;2.38;;;;;;;;;;5055249;28;20021;-69
2022/07/11 04:51:27;;;;;;;5.15;2.45;;;;;;;;;;5055204;28;20032;-69
2022/07/11 04:53:56;;;;;;;4.53;2.70;;;;;;;;;;5054994;28;20053;-71
2022/07/11 04:56:22;;;;;;;5.70;2.50;;;;;;;;;;5055174;28;20074;-69
2022/07/11 04:58:49;;;;;;;5.53;2.60;;;;;;;;;;5055356;28;20029;-69
2022/07/11 05:01:15;;;;;;;5.95;2.67;;;;;;;;;;5055313;28;20029;-69
2022/07/11 05:03:41;;;;;;;4.18;2.40;;;;;;;;;;5054899;28;20025;-69
2022/07/11 05:06:07;;;;;;;3.97;2.50;;;;;;;;;;5055173;28;20025;-70
2022/07/11 05:08:36;;;;;;;5.35;2.75;;;;;;;;;;5055142;28;20356;-70
2022/07/11 05:11:02;;;;;;;3.40;2.20;;;;;;;;;;5037083;28;20490;-69
2022/07/11 05:13:28;;;;;;;4.45;2.67;;;;;;;;;;5054785;28;20031;-70
2022/07/11 05:15:54;;;;;;;5.25;2.90;;;;;;;;;;5054739;28;20442;-71
2022/07/11 05:18:20;;;;;;;7.68;3.30;;;;;;;;;;5054672;28;20017;-69
2022/07/11 05:20:48;;;;;;;5.47;2.60;;;;;;;;;;5036772;28;20032;-69
2022/07/11 05:23:14;;;;;;;4.68;2.65;;;;;;;;;;5055452;28;20375;-69
2022/07/11 05:25:40;;;;;;;4.65;2.28;;;;;;;;;;5054460;28;20028;-69
2022/07/11 05:28:06;;;;;;;5.63;2.45;;;;;;;;;;5054810;28;20063;-70
2022/07/11 05:30:32;;;;;;;5.93;2.60;;;;;;;;;;5054516;28;20025;-70
2022/07/11 05:32:58;;;;;;;5.28;2.58;;;;;;;;;;5054413;28;20115;-69
2022/07/11 05:35:25;;;;;;;5.82;2.78;;;;;;;;;;5054659;28;20033;-70
2022/07/11 05:37:51;;;;;;;5.05;2.70;;;;;;;;;;5054366;28;20134;-71
2022/07/11 05:40:17;;;;;;;4.93;2.85;;;;;;;;;;5054360;28;20401;-70
2022/07/11 05:42:43;;;;;;;3.53;2.17;;;;;;;;;;5054563;28;20390;-67
2022/07/11 05:45:09;;;;;;;4.82;2.15;;;;;;;;;;5054032;28;20032;-68
2022/07/11 05:47:35;;;;;;;8.43;2.78;;;;;;;;;;5054464;28;20071;-70
2022/07/11 05:50:01;;;;;;;5.63;2.45;;;;;;;;;;5054144;28;20075;-70
2022/07/11 05:52:27;;;;;;;4.03;2.25;;;;;;;;;;5054081;28;20017;-69
2022/07/11 05:54:54;;;;;;;4.38;2.17;;;;;;;;;;5054142;28;20425;-70
2022/07/11 05:57:20;;;;;;;6.97;2.30;;;;;;;;;;5054002;28;20050;-71
2022/07/11 05:59:46;;;;;;;5.07;1.98;;;;;;;;;;5053932;28;20037;-69
2022/07/11 06:02:13;;;;;;;4.53;2.10;;;;;;;;;;5036001;28;20440;-70
2022/07/11 06:04:39;;;;;;;3.58;1.73;;;;;;;;;;5053781;28;20154;-69
2022/07/11 06:07:05;;;;;;;3.20;1.63;;;;;;;;;;5054078;28;20032;-66
2022/07/11 06:09:31;;;;;;;4.20;1.95;;;;;;;;;;5054025;28;20025;-70
2022/07/11 06:11:58;;;;;;;8.35;2.08;;;;;;;;;;5035862;28;20021;-70
2022/07/11 06:14:24;;;;;;;7.43;2.00;;;;;;;;;;5053627;28;20159;-69
2022/07/11 06:16:50;;;;;;;2.70;1.67;;;;;;;;;;5035732;28;20025;-70
2022/07/11 06:19:16;;;;;;;4.43;1.80;;;;;;;;;;5053582;28;20025;-68
2022/07/11 06:21:42;;;;;;;4.47;1.90;;;;;;;;;;5053785;28;20021;-71
2022/07/11 06:24:09;;;;;;;3.67;1.70;;;;;;;;;;5053646;28;20033;-71
2022/07/11 06:26:35;;;;;;;8.68;2.10;;;;;;;;;;5053451;28;20387;-70
2022/07/11 06:29:01;;;;;;;5.93;1.67;;;;;;;;;;5035575;28;20375;-72
2022/07/11 06:31:27;;;;;;;4.65;1.60;;;;;;;;;;5053735;28;20017;-70
2022/07/11 06:33:57;;;;;;;4.32;1.67;;;;;;;;;;5053634;28;20059;-68
2022/07/11 06:36:24;;;;;;;2.65;1.50;;;;;;;;;;5053345;28;20056;-69
2022/07/11 06:38:50;;;;;;;4.88;1.33;;;;;;;;;;5053269;28;20025;-70
2022/07/11 06:41:16;;;;;;;4.15;1.40;;;;;;;;;;5053772;28;20083;-69
2022/07/11 06:43:42;;;;;;;4.35;1.48;;;;;;;;;;5053156;28;20371;-68
2022/07/11 06:46:08;;;;;;;6.00;1.63;;;;;;;;;;5053098;28;20028;-70
2022/07/11 06:48:35;;;;;;;4.63;1.70;;;;;;;;;;5053217;28;20027;-73
2022/07/11 06:51:01;;;;;;;8.40;1.85;;;;;;;;;;5053276;28;20067;-69
2022/07/11 06:53:27;;;;;;;4.38;1.83;;;;;;;;;;5052958;28;20048;-71
2022/07/11 06:55:53;;;;;;;3.40;1.48;;;;;;;;;;5053906;28;20021;-68
2022/07/11 06:58:34;;;;;;;5.93;1.80;;;;;;;;;;5053347;28;20071;-70
2022/07/11 07:01:04;;;;;;;3.45;1.30;;;;;;;;;;5053053;28;20104;-69
2022/07/11 07:03:30;;;;;;;2.78;0.85;;;;;;;;;;5052917;28;20033;-69
2022/07/11 07:05:57;;;;;;;3.28;1.25;;;;;;;;;;5053240;28;20379;-70
2022/07/11 07:08:24;;;;;;;7.10;1.20;;;;;;;;;;5034092;28;20025;-70
2022/07/11 07:10:50;;;;;;;2.10;1.00;;;;;;;;;;5052943;28;20118;-73
2022/07/11 07:13:16;;;;;;;2.40;0.98;;;;;;;;;;5052072;28;20634;-61
2022/07/11 07:15:42;;;;;;;4.55;1.52;;;;;;;;;;5052890;28;20036;-59
2022/07/11 07:18:08;;;;;;;1.10;0.90;;;;;;;;;;5052431;28;20029;-60
2022/07/11 07:20:34;;;;;;;5.65;0.90;;;;;;;;;;5052868;28;20594;-58
2022/07/11 07:23:00;;;;;;;2.97;1.65;;;;;;;;;;5052835;28;20025;-58
2022/07/11 07:25:26;;;;;;;2.55;1.00;;;;;;;;;;5052890;28;20060;-61
2022/07/11 07:27:52;;;;;;;3.72;0.93;;;;;;;;;;5052507;28;20021;-61
2022/07/11 07:30:19;;;;;;;1.58;1.20;;;;;;;;;;5053029;28;20032;-64
2022/07/11 07:32:45;;;;;;;4.97;1.35;;;;;;;;;;5052301;28;20375;-62
2022/07/11 07:35:11;;;;;;;4.82;1.30;;;;;;;;;;5051766;28;20039;-60
2022/07/11 07:37:37;;;;;;;2.92;1.02;;;;;;;;;;5051665;28;20071;-59
2022/07/11 07:40:03;;;;;;;3.35;1.30;;;;;;;;;;5051566;28;20103;-61
2022/07/11 07:42:29;;;;;;;1.83;0.90;;;;;;;;;;5052502;28;20414;-60
2022/07/11 07:44:55;;;;;;;5.20;1.30;;;;;;;;;;5052457;28;20033;-59
2022/07/11 07:47:21;;;;;;;2.20;1.00;;;;;;;;;;5052028;28;20525;-63
2022/07/11 07:49:47;;;;;;;4.53;1.38;;;;;;;;;;5052081;28;20029;-62
2022/07/11 07:52:13;;;;;;;3.33;1.25;;;;;;;;;;5051384;28;20032;-59
2022/07/11 07:54:39;;;;;;;2.95;1.15;;;;;;;;;;5032730;28;20053;-62
2022/07/11 07:57:05;;;;;;;3.13;1.30;;;;;;;;;;5039098;28;20033;-61
2022/07/11 07:59:31;;;;;;;4.65;1.30;;;;;;;;;;5036344;28;20036;-58
2022/07/11 08:01:57;;;;;;;3.38;1.23;;;;;;;;;;5032599;28;20026;-57
2022/07/11 08:04:23;;;;;;;3.10;1.30;;;;;;;;;;5035280;28;20040;-58
2022/07/11 08:06:49;;;;;;;4.75;1.70;;;;;;;;;;5036112;28;20391;-63
2022/07/11 08:09:15;;;;;;;3.13;1.20;;;;;;;;;;5042624;28;20067;-58
2022/07/11 08:17:21;;;;;;;2.35;1.20;;;;;;;;;;4982055;28;20410;-62
2022/07/11 08:19:47;;;;;;;4.80;1.10;;;;;;;;;;5035684;28;20056;-61
2022/07/11 08:22:13;;;;;;;5.72;1.55;;;;;;;;;;5035349;28;20495;-63
2022/07/11 08:24:39;;;;;;;3.03;1.10;;;;;;;;;;5034951;28;20071;-61
2022/07/11 08:27:05;;;;;;;2.58;1.20;;;;;;;;;;5035360;28;20440;-64
2022/07/11 08:29:31;;;;;;;4.20;1.40;;;;;;;;;;5035577;28;20494;-55
2022/07/11 08:31:57;;;;;;;6.55;1.92;;;;;;;;;;5034955;28;20061;-59
2022/07/11 08:34:24;;;;;;;2.35;1.40;;;;;;;;;;5035126;28;20029;-59
2022/07/11 08:36:51;;;;;;;1.98;1.30;;;;;;;;;;5035881;28;20030;-62
2022/07/11 08:39:17;;;;;;;2.65;1.20;;;;;;;;;;5035857;28;20156;-63
2022/07/11 08:41:46;;;;;;;5.70;1.13;;;;;;;;;;5034573;28;20033;-61
2022/07/11 08:46:58;;;;;;;3.85;1.50;;;;;;;;;;5035238;28;20036;-61
2022/07/11 08:49:24;;;;;;;2.63;1.40;;;;;;;;;;5035747;28;20074;-60
2022/07/11 08:52:09;;;;;;;4.22;1.48;;;;;;;;;;5034405;28;20100;-60
2022/07/11 08:54:35;;;;;;;3.25;1.27;;;;;;;;;;5034966;28;20025;-58
2022/07/11 08:57:19;;;;;;;5.25;1.40;;;;;;;;;;5035522;28;20021;-64
2022/07/11 08:59:47;;;;;;;1.50;1.17;;;;;;;;;;5035730;28;20064;-60
2022/07/11 09:02:14;;;;;;;4.63;1.95;;;;;;;;;;5034597;28;20030;-60
2022/07/11 09:07:26;;;;;;;5.45;1.58;;;;;;;;;;5031862;28;20570;-60
2022/07/11 09:10:10;;;;;;;1.65;1.20;;;;;;;;;;5031791;28;20033;-60
2022/07/11 09:12:36;;;;;;;4.90;1.42;;;;;;;;;;5034856;28;20361;-59
2022/07/11 09:15:03;;;;;;;3.45;1.17;;;;;;;;;;5033588;28;20498;-59
2022/07/11 09:17:32;;;;;;;2.83;1.50;;;;;;;;;;5034571;28;20041;-59
2022/07/11 09:19:58;;;;;;;2.92;1.27;;;;;;;;;;5034093;28;20037;-59
2022/07/11 09:25:21;;;;;;;2.95;1.52;;;;;;;;;;5034327;28;20094;-56
2022/07/11 09:27:47;;;;;;;2.38;1.20;;;;;;;;;;5034662;28;20464;-64
2022/07/11 09:30:19;;;;;;;1.08;0.90;;;;;;;;;;5034877;28;20024;-62
2022/07/11 09:32:55;;;;;;;2.53;1.10;;;;;;;;;;5035018;28;20021;-62
2022/07/11 09:35:21;;;;;;;5.13;1.10;;;;;;;;;;5033159;28;20037;-62
2022/07/11 09:37:48;;;;;;;3.25;1.17;;;;;;;;;;5034091;28;20025;-59
2022/07/11 09:40:14;;;;;;;2.20;1.27;;;;;;;;;;5034234;28;20033;-65
2022/07/11 09:42:51;;;;;;;2.17;1.10;;;;;;;;;;5034237;28;20390;-62
2022/07/11 09:45:17;;;;;;;5.97;1.27;;;;;;;;;;5034224;28;20033;-63
2022/07/11 09:47:47;;;;;;;3.60;1.33;;;;;;;;;;5033770;28;20060;-61
2022/07/11 09:50:13;;;;;;;4.38;1.55;;;;;;;;;;5033992;28;20050;-61
2022/07/11 09:52:42;;;;;;;1.17;1.00;;;;;;;;;;5034129;28;20029;-62
2022/07/11 09:55:09;;;;;;;2.35;1.30;;;;;;;;;;5033735;28;20021;-60
2022/07/11 10:03:14;;;;;;;3.55;1.40;;;;;;;;;;4577380;28;20175;-62
2022/07/11 10:05:40;;;;;;;3.55;1.42;;;;;;;;;;5013396;28;20030;-63
2022/07/11 10:08:06;;;;;;;2.58;1.38;;;;;;;;;;5013453;28;20044;-64
2022/07/11 10:10:33;;;;;;;2.13;1.15;;;;;;;;;;5013711;28;20018;-66
2022/07/11 10:12:59;;;;;;;3.60;1.20;;;;;;;;;;5013861;28;20033;-58
2022/07/11 10:15:35;;;;;;;1.85;1.30;;;;;;;;;;5013653;28;20037;-56
2022/07/11 10:18:07;;;;;;;3.97;1.40;;;;;;;;;;5013271;28;20113;-62
2022/07/11 10:20:36;;;;;;;1.95;1.20;;;;;;;;;;5013664;28;20036;-60
2022/07/11 10:23:08;;;;;;;2.45;1.60;;;;;;;;;;5014241;28;20018;-60
2022/07/11 10:25:38;;;;;;;3.63;1.50;;;;;;;;;;5013301;28;20030;-61
2022/07/11 10:28:11;;;;;;;1.60;1.02;;;;;;;;;;5013745;28;20075;-60
2022/07/11 10:30:45;;;;;;;1.40;1.27;;;;;;;;;;5014082;28;20026;-58
2022/07/11 10:33:11;;;;;;;2.35;1.30;;;;;;;;;;5013783;28;20180;-60
2022/07/11 10:35:40;;;;;;;2.03;0.90;;;;;;;;;;5013695;28;20041;-60
2022/07/11 10:38:06;;;;;;;2.58;1.10;;;;;;;;;;5013704;28;20108;-64
2022/07/11 10:40:46;;;;;;;5.40;1.42;;;;;;;;;;5013690;28;20061;-62
2022/07/11 10:43:12;;;;;;;5.82;1.40;;;;;;;;;;5013305;28;20057;-72
2022/07/11 10:45:50;;;;;;;3.15;1.27;;;;;;;;;;5012576;28;20026;-71
2022/07/11 10:48:16;;;;;;;1.60;1.00;;;;;;;;;;5013541;28;20026;-72
2022/07/11 10:50:44;;;;;;;3.40;1.35;;;;;;;;;;5013548;28;20029;-71
2022/07/11 10:53:11;;;;;;;2.50;1.17;;;;;;;;;;5013548;28;20368;-72
2022/07/11 10:56:01;;;;;;;4.25;1.60;;;;;;;;;;5013474;28;20030;-72
2022/07/11 10:58:32;;;;;;;4.80;1.38;;;;;;;;;;5013453;28;20046;-72
2022/07/11 11:00:58;;;;;;;;;;;;;;;;;;5013822;28;20109;-72
2022/07/11 11:03:24;;;;;;;3.28;1.25;;;;;;;;;;5013783;28;19952;-71
2022/07/11 11:05:54;;;;;;;1.35;1.25;;;;;;;;;;4995602;28;20495;-72
2022/07/11 11:08:35;;;;;;;2.28;1.10;;;;;;;;;;5013909;28;20026;-72
2022/07/11 11:11:02;;;;;;;3.22;1.17;;;;;;;;;;5013876;28;20021;-72
2022/07/11 11:13:29;;;;;;;3.53;1.38;;;;;;;;;;5013329;28;20450;-72
2022/07/11 11:15:57;;;;;;;1.95;1.10;;;;;;;;;;5013513;28;20104;-72
2022/07/11 11:18:26;;;;;;;2.85;1.15;;;;;;;;;;5013261;28;20030;-72
2022/07/11 11:21:01;;;;;;;4.10;1.30;;;;;;;;;;5013527;28;20034;-72
2022/07/11 11:23:47;;;;;;;1.77;1.50;;;;;;;;;;5013266;28;20030;-72
2022/07/11 11:26:16;;;;;;;2.40;1.30;;;;;;;;;;5011830;28;20029;-71
2022/07/11 11:28:58;;;;;;;2.80;1.08;;;;;;;;;;4995569;28;20030;-72
2022/07/11 11:31:25;;;;;;;4.15;1.10;;;;;;;;;;5013139;28;20025;-72
2022/07/11 11:33:51;;;;;;;4.35;1.10;;;;;;;;;;4995489;28;20069;-72
2022/07/11 11:36:21;;;;;;;6.15;1.23;;;;;;;;;;4995493;28;20105;-71
2022/07/11 11:38:47;;;;;;;3.83;1.48;;;;;;;;;;5016340;28;20458;-72
2022/07/11 11:41:23;;;;;;;3.00;1.17;;;;;;;;;;4999294;28;20033;-72
2022/07/11 11:43:49;;;;;;;2.67;1.50;;;;;;;;;;5017356;28;20380;-71
2022/07/11 11:46:15;;;;;;;5.43;1.30;;;;;;;;;;5017095;28;20471;-71
2022/07/11 11:48:45;;;;;;;2.15;1.20;;;;;;;;;;5016762;28;20454;-71
2022/07/11 11:51:15;;;;;;;2.70;1.13;;;;;;;;;;5017012;28;20018;-71
2022/07/11 11:53:43;;;;;;;7.35;1.88;;;;;;;;;;5016677;28;20037;-71
2022/07/11 11:56:23;;;;;;;3.85;1.35;;;;;;;;;;5016657;28;20434;-71
2022/07/11 11:58:50;;;;;;;4.70;1.50;;;;;;;;;;5016879;28;20076;-71
2022/07/11 12:01:26;;;;;;;2.58;1.27;;;;;;;;;;5016502;28;20022;-72
2022/07/11 12:03:54;;;;;;;1.77;1.25;;;;;;;;;;5016559;28;20038;-71
2022/07/11 12:06:25;;;;;;;3.03;1.40;;;;;;;;;;5016758;28;20368;-72
2022/07/11 12:08:51;;;;;;;1.70;1.10;;;;;;;;;;5016404;28;20076;-71
2022/07/11 12:11:18;;;;;;;1.73;1.15;;;;;;;;;;5016595;28;20211;-72
2022/07/11 12:13:44;;;;;;;2.47;1.10;;;;;;;;;;5016294;28;20087;-72
2022/07/11 12:19:03;;;;;;;1.40;0.80;;;;;;;;;;4979436;28;20038;-77
2022/07/11 12:21:30;;;;;;;2.55;1.20;;;;;;;;;;4981943;28;20050;-78
2022/07/11 12:24:00;;;;;;;3.83;1.00;;;;;;;;;;4996436;28;20053;-76
2022/07/11 12:26:29;;;;;;;3.78;1.17;;;;;;;;;;4978966;28;20440;-79
2022/07/11 12:28:55;;;;;;;;;;;;;;;;;;4997115;28;20093;-77
2022/07/11 12:31:21;;;;;;;1.88;1.00;;;;;;;;;;4996437;28;20371;-77
2022/07/11 12:33:53;;;;;;;5.13;1.23;;;;;;;;;;4990439;28;20026;-83
2022/07/11 12:36:32;;;;;;;2.55;1.02;;;;;;;;;;4976856;28;20093;-71
2022/07/11 12:38:58;;;;;;;4.43;1.33;;;;;;;;;;4976821;28;20027;-78
2022/07/11 12:41:24;;;;;;;5.50;1.38;;;;;;;;;;4976773;28;20034;-75
2022/07/11 12:46:36;;;;;;;2.00;1.23;;;;;;;;;;4976486;28;20025;-75
2022/07/11 12:49:03;;;;;;;4.05;1.00;;;;;;;;;;4958652;28;20432;-80
2022/07/11 12:51:30;;;;;;;1.23;1.02;;;;;;;;;;4976857;28;20023;-77
2022/07/11 12:54:01;;;;;;;3.33;1.85;;;;;;;;;;4976809;28;20407;-80
2022/07/11 12:56:27;;;;;;;3.08;1.10;;;;;;;;;;4977006;28;20023;-83
2022/07/11 12:58:53;;;;;;;3.38;0.88;;;;;;;;;;4959156;28;20049;-74
2022/07/11 13:01:19;;;;;;;1.42;0.88;;;;;;;;;;4976351;28;20385;-71
2022/07/11 13:03:45;;;;;;;1.27;1.02;;;;;;;;;;4976400;28;20058;-71
2022/07/11 13:06:11;;;;;;;6.60;1.10;;;;;;;;;;4976286;28;20026;-73
2022/07/11 13:08:46;;;;;;;2.33;0.98;;;;;;;;;;4976747;28;20027;-78
2022/07/11 13:11:13;;;;;;;3.45;1.08;;;;;;;;;;4990456;28;20503;-71
2022/07/11 13:13:39;;;;;;;4.93;1.20;;;;;;;;;;4995964;28;20510;-74
2022/07/11 13:16:07;;;;;;;3.95;1.42;;;;;;;;;;4995703;28;20030;-74
2022/07/11 13:18:33;;;;;;;3.20;1.02;;;;;;;;;;4995604;28;20036;-76
2022/07/11 13:21:00;;;;;;;2.85;1.20;;;;;;;;;;4995792;28;20030;-75
2022/07/11 13:23:27;;;;;;;3.30;1.30;;;;;;;;;;4977993;28;20034;-76
2022/07/11 13:25:53;;;;;;;3.65;1.48;;;;;;;;;;4995254;28;20088;-74
2022/07/11 13:28:19;;;;;;;1.00;0.88;;;;;;;;;;4995556;28;20033;-77
2022/07/11 13:30:46;;;;;;;1.33;1.00;;;;;;;;;;4977860;28;20056;-69
2022/07/11 13:33:12;;;;;;;1.38;0.93;;;;;;;;;;4995796;28;20106;-70
2022/07/11 13:35:38;;;;;;;3.40;1.00;;;;;;;;;;4995472;28;20543;-71
2022/07/11 13:38:04;;;;;;;2.97;1.10;;;;;;;;;;4994716;28;20068;-73
2022/07/11 13:40:33;;;;;;;5.30;1.35;;;;;;;;;;4994698;28;20109;-74
2022/07/11 13:43:00;;;;;;;3.92;1.00;;;;;;;;;;4995059;28;20036;-77
2022/07/11 13:45:27;;;;;;;5.90;1.05;;;;;;;;;;4995089;28;20028;-76
2022/07/11 13:47:53;;;;;;;4.97;1.40;;;;;;;;;;4995183;28;20049;-77
2022/07/11 13:50:22;;;;;;;4.65;1.30;;;;;;;;;;4994892;28;20021;-78
2022/07/11 13:52:48;;;;;;;2.38;0.85;;;;;;;;;;4994906;28;20027;-77
2022/07/11 13:55:18;;;;;;;3.25;0.73;;;;;;;;;;4995122;28;20029;-77
2022/07/11 13:57:44;;;;;;;3.63;1.20;;;;;;;;;;4994814;28;20113;-75
2022/07/11 14:00:11;;;;;;;1.73;0.90;;;;;;;;;;4994485;28;20484;-73
2022/07/11 14:02:37;;;;;;;1.27;0.88;;;;;;;;;;4994108;28;20411;-74
2022/07/11 14:05:03;;;;;;;3.00;1.00;;;;;;;;;;4994987;28;20062;-76
2022/07/11 14:07:29;;;;;;;4.65;1.40;;;;;;;;;;4994861;28;20029;-73
2022/07/11 14:09:55;;;;;;;3.03;1.10;;;;;;;;;;4994558;28;20031;-77
2022/07/11 14:12:21;;;;;;;7.80;1.10;;;;;;;;;;4994554;28;20488;-80
2022/07/11 14:14:47;;;;;;;7.55;1.17;;;;;;;;;;4994449;28;20038;-75
2022/07/11 14:17:14;;;;;;;4.25;1.05;;;;;;;;;;4994699;28;20030;-76
2022/07/11 14:19:40;;;;;;;3.38;0.93;;;;;;;;;;4994615;28;20033;-75
2022/07/11 14:22:07;;;;;;;1.30;0.90;;;;;;;;;;4994629;28;20034;-75
2022/07/11 14:24:33;;;;;;;0.98;0.95;;;;;;;;;;4994684;28;20076;-75
2022/07/11 14:26:59;;;;;;;2.13;1.30;;;;;;;;;;4994441;28;20479;-74
2022/07/11 14:29:26;;;;;;;2.38;0.98;;;;;;;;;;4985967;28;20027;-77
2022/07/11 14:31:53;;;;;;;1.23;1.00;;;;;;;;;;4974751;28;20097;-73
2022/07/11 14:34:20;;;;;;;3.03;1.10;;;;;;;;;;4974966;28;20198;-77
2022/07/11 14:36:47;;;;;;;5.43;1.17;;;;;;;;;;4974737;28;20034;-79
2022/07/11 14:39:13;;;;;;;1.13;0.82;;;;;;;;;;4957294;28;20031;-78
2022/07/11 14:41:39;;;;;;;4.20;1.27;;;;;;;;;;4974101;28;20062;-78
2022/07/11 14:44:05;;;;;;;1.20;1.10;;;;;;;;;;4962928;28;20030;-73
2022/07/11 14:46:31;;;;;;;5.90;1.30;;;;;;;;;;4994158;28;20022;-75
2022/07/11 14:48:57;;;;;;;4.05;0.88;;;;;;;;;;4993883;28;20037;-79
2022/07/11 14:51:24;;;;;;;1.58;0.75;;;;;;;;;;4967806;28;20090;-76
2022/07/11 14:53:50;;;;;;;2.67;1.38;;;;;;;;;;4974005;28;20058;-79
2022/07/11 14:56:16;;;;;;;4.47;1.30;;;;;;;;;;4974722;28;20019;-77
2022/07/11 14:58:42;;;;;;;2.50;1.02;;;;;;;;;;4974474;28;20037;-76
2022/07/11 15:01:08;;;;;;;0.80;0.80;;;;;;;;;;4974370;28;20102;-80
2022/07/11 15:03:37;;;;;;;1.20;1.10;;;;;;;;;;4991214;28;20042;-74
2022/07/11 15:06:03;;;;;;;4.05;1.10;;;;;;;;;;4993741;28;20381;-71
2022/07/11 15:13:58;;;;;;;1.40;0.98;;;;;;;;;;4994094;28;20113;-78
2022/07/11 15:16:26;;;;;;;2.05;1.15;;;;;;;;;;5001767;28;20030;-78